createdAt,value
2023-05-11T00:00:40.648Z,98.45
2023-05-11T00:03:07.856Z,97.95
2023-05-11T00:05:35.029Z,97.57
2023-05-11T00:08:02.184Z,97.40
2023-05-11T00:10:29.781Z,97.07
2023-05-11T00:12:57.966Z,97.07
2023-05-11T00:15:25.826Z,97.66
2023-05-11T00:17:52.997Z,98.32
2023-05-11T00:20:22.292Z,98.63
2023-05-11T00:22:49.862Z,98.89
2023-05-11T00:25:17.059Z,99.48
2023-05-11T00:27:46.289Z,99.87
2023-05-11T00:30:15.066Z,100.00
2023-05-11T00:32:43.102Z,100.00
2023-05-11T00:35:11.768Z,100.00
2023-05-11T00:37:41.852Z,100.00
2023-05-11T00:40:09.401Z,100.00
2023-05-11T00:42:36.683Z,100.00
2023-05-11T00:45:04.662Z,100.00
2023-05-11T00:47:32.263Z,100.00
2023-05-11T00:49:59.397Z,100.00
2023-05-11T00:52:27.248Z,100.00
2023-05-11T00:54:54.362Z,100.00
2023-05-11T00:57:21.617Z,100.00
2023-05-11T00:59:49.977Z,100.00
2023-05-11T01:02:17.609Z,100.00
2023-05-11T01:04:45.024Z,100.00
2023-05-11T01:07:29.545Z,100.00
2023-05-11T01:10:10.668Z,100.00
2023-05-11T01:12:56.231Z,100.00
2023-05-11T01:15:26.286Z,99.72
2023-05-11T01:18:25.156Z,99.54
2023-05-11T01:20:55.520Z,99.90
2023-05-11T01:23:26.017Z,99.95
2023-05-11T01:26:02.663Z,99.69
2023-05-11T01:28:45.247Z,99.85
2023-05-11T01:31:13.133Z,99.80
2023-05-11T01:33:44.752Z,100.00
2023-05-11T01:36:11.786Z,100.00
2023-05-11T01:38:41.151Z,100.00
2023-05-11T01:41:16.064Z,100.00
2023-05-11T01:43:44.584Z,100.00
2023-05-11T01:46:11.697Z,100.00
2023-05-11T01:48:40.380Z,100.00
2023-05-11T01:51:07.399Z,100.00
2023-05-11T01:53:35.976Z,100.00
2023-05-11T01:56:03.279Z,100.00
2023-05-11T01:58:30.483Z,100.00
2023-05-11T02:00:58.135Z,100.00
2023-05-11T02:03:25.250Z,100.00
2023-05-11T02:05:52.713Z,100.00
2023-05-11T02:08:19.993Z,100.00
2023-05-11T02:10:47.586Z,100.00
2023-05-11T02:13:14.754Z,100.00
2023-05-11T02:15:42.531Z,100.00
2023-05-11T02:18:11.573Z,100.00
2023-05-11T02:20:39.763Z,100.00
2023-05-11T02:23:07.057Z,100.00
2023-05-11T02:25:34.105Z,100.00
2023-05-11T02:28:01.538Z,100.00
2023-05-11T02:30:28.664Z,100.00
2023-05-11T02:32:56.740Z,100.00
2023-05-11T02:35:25.976Z,100.00
2023-05-11T02:37:55.051Z,100.00
2023-05-11T02:40:26.740Z,100.00
2023-05-11T02:42:57.314Z,100.00
2023-05-11T02:45:24.619Z,100.00
2023-05-11T02:47:55.334Z,100.00
2023-05-11T02:50:25.726Z,100.00
2023-05-11T02:52:57.285Z,100.00
2023-05-11T02:55:24.607Z,100.00
2023-05-11T02:57:51.731Z,100.00
2023-05-11T03:00:19.161Z,100.00
2023-05-11T03:02:46.760Z,100.00
2023-05-11T03:05:15.514Z,100.00
2023-05-11T03:07:43.250Z,100.00
2023-05-11T03:10:10.963Z,100.00
2023-05-11T03:12:40.174Z,100.00
2023-05-11T03:15:08.516Z,100.00
2023-05-11T03:17:36.053Z,100.00
2023-05-11T03:20:04.221Z,100.00
2023-05-11T03:22:31.676Z,100.00
2023-05-11T03:24:58.854Z,100.00
2023-05-11T03:27:26.106Z,100.00
2023-05-11T03:29:53.315Z,100.00
2023-05-11T03:32:20.693Z,100.00
2023-05-11T03:34:47.967Z,100.00
2023-05-11T03:37:15.802Z,100.00
2023-05-11T03:39:44.203Z,100.00
2023-05-11T03:42:12.582Z,100.00
2023-05-11T03:44:39.626Z,100.00
2023-05-11T03:47:06.674Z,100.00
2023-05-11T03:49:34.553Z,100.00
2023-05-11T03:52:03.126Z,100.00
2023-05-11T03:54:30.243Z,100.00
2023-05-11T03:56:57.298Z,100.00
2023-05-11T03:59:24.301Z,100.00
2023-05-11T04:01:53.453Z,100.00
2023-05-11T04:04:21.533Z,100.00
2023-05-11T04:06:48.711Z,100.00
2023-05-11T04:09:19.048Z,100.00
2023-05-11T04:11:46.127Z,100.00
2023-05-11T04:14:13.283Z,100.00
2023-05-11T04:16:40.325Z,100.00
2023-05-11T04:19:07.666Z,100.00
2023-05-11T04:21:36.178Z,100.00
2023-05-11T04:24:03.967Z,100.00
2023-05-11T04:26:31.091Z,100.00
2023-05-11T04:28:58.130Z,100.00
2023-05-11T04:31:25.194Z,100.00
2023-05-11T04:33:52.427Z,100.00
2023-05-11T04:36:20.593Z,100.00
2023-05-11T04:38:47.666Z,100.00
2023-05-11T04:41:15.714Z,99.88
2023-05-11T04:43:42.952Z,99.53
2023-05-11T04:46:10.494Z,98.66
2023-05-11T04:48:37.602Z,97.10
2023-05-11T04:51:06.250Z,96.56
2023-05-11T04:53:38.754Z,96.64
2023-05-11T04:56:05.954Z,96.22
2023-05-11T04:58:33.004Z,94.98
2023-05-11T05:01:01.383Z,93.32
2023-05-11T05:03:30.854Z,92.43
2023-05-11T05:06:00.444Z,91.49
2023-05-11T05:08:28.595Z,90.62
2023-05-11T05:10:55.962Z,89.81
2023-05-11T05:13:24.060Z,89.30
2023-05-11T05:15:51.888Z,89.48
2023-05-11T05:18:19.163Z,88.96
2023-05-11T05:20:48.385Z,88.56
2023-05-11T05:23:15.518Z,88.23
2023-05-11T05:25:42.816Z,87.59
2023-05-11T05:28:11.910Z,86.95
2023-05-11T05:30:40.986Z,86.65
2023-05-11T05:33:09.459Z,85.04
2023-05-11T05:35:36.474Z,84.39
2023-05-11T05:38:03.831Z,83.48
2023-05-11T05:40:31.444Z,82.75
2023-05-11T05:42:58.532Z,82.36
2023-05-11T05:45:25.987Z,82.05
2023-05-11T05:47:54.663Z,81.75
2023-05-11T05:50:22.627Z,81.24
2023-05-11T05:52:49.688Z,80.38
2023-05-11T05:55:17.467Z,79.32
2023-05-11T05:57:46.281Z,79.07
2023-05-11T06:00:14.152Z,78.93
2023-05-11T06:02:41.876Z,78.59
2023-05-11T06:05:15.954Z,78.34
2023-05-11T06:07:46.627Z,78.02
2023-05-11T06:10:19.161Z,77.95
2023-05-11T06:12:47.107Z,77.60
2023-05-11T06:15:15.453Z,77.28
2023-05-11T06:17:46.364Z,77.08
2023-05-11T06:20:14.189Z,76.06
2023-05-11T06:22:41.455Z,74.72
2023-05-11T06:25:08.862Z,73.35
2023-05-11T06:27:36.280Z,72.01
2023-05-11T06:30:03.468Z,72.17
2023-05-11T06:32:34.278Z,72.86
2023-05-11T06:35:02.368Z,73.21
2023-05-11T06:37:30.410Z,72.73
2023-05-11T06:39:58.779Z,72.63
2023-05-11T06:42:27.308Z,71.87
2023-05-11T06:45:04.598Z,70.75
2023-05-11T06:47:33.206Z,70.35
2023-05-11T06:50:01.066Z,70.00
2023-05-11T06:52:28.432Z,69.68
2023-05-11T06:54:56.429Z,68.69
2023-05-11T06:57:23.557Z,68.93
2023-05-11T06:59:50.870Z,68.83
2023-05-11T07:02:18.243Z,69.08
2023-05-11T07:04:45.391Z,69.17
2023-05-11T07:07:12.610Z,69.29
2023-05-11T07:09:41.892Z,69.22
2023-05-11T07:12:09.632Z,67.51
2023-05-11T07:14:36.875Z,66.26
2023-05-11T07:17:04.869Z,66.27
2023-05-11T07:19:32.289Z,65.49
2023-05-11T07:21:59.503Z,65.97
2023-05-11T07:24:26.786Z,65.91
2023-05-11T07:26:53.894Z,64.82
2023-05-11T07:29:21.388Z,64.29
2023-05-11T07:31:48.623Z,63.44
2023-05-11T07:34:16.408Z,63.37
2023-05-11T07:36:43.551Z,63.54
2023-05-11T07:39:11.907Z,63.56
2023-05-11T07:41:40.524Z,62.99
2023-05-11T07:44:09.953Z,62.47
2023-05-11T07:46:37.617Z,62.19
2023-05-11T07:49:16.785Z,62.35
2023-05-11T07:51:45.909Z,61.85
2023-05-11T07:54:13.046Z,61.70
2023-05-11T07:56:40.221Z,61.75
2023-05-11T07:59:07.358Z,61.67
2023-05-11T08:01:36.952Z,61.90
2023-05-11T08:04:04.254Z,62.99
2023-05-11T08:06:31.354Z,63.55
2023-05-11T08:08:58.954Z,63.47
2023-05-11T08:11:28.314Z,63.53
2023-05-11T08:13:55.394Z,63.64
2023-05-11T08:16:22.870Z,64.41
2023-05-11T08:18:49.994Z,63.21
2023-05-11T08:21:17.818Z,60.62
2023-05-11T08:23:45.262Z,60.04
2023-05-11T08:26:12.401Z,59.93
2023-05-11T08:28:39.686Z,60.37
2023-05-11T08:31:07.133Z,60.89
2023-05-11T08:33:38.003Z,60.57
2023-05-11T08:36:07.014Z,60.12
2023-05-11T08:38:35.513Z,60.49
2023-05-11T08:41:03.007Z,59.79
2023-05-11T08:43:30.154Z,59.20
2023-05-11T08:45:58.322Z,57.50
2023-05-11T08:48:25.437Z,57.53
2023-05-11T08:50:52.868Z,57.22
2023-05-11T08:53:20.086Z,57.30
2023-05-11T08:55:47.364Z,56.43
2023-05-11T08:58:19.631Z,56.42
2023-05-11T09:00:47.401Z,55.53
2023-05-11T09:03:14.891Z,55.82
2023-05-11T09:05:42.273Z,54.28
2023-05-11T09:08:09.392Z,54.12
2023-05-11T09:10:36.982Z,52.76
2023-05-11T09:13:04.203Z,51.45
2023-05-11T09:15:37.081Z,50.73
2023-05-11T09:18:05.229Z,50.13
2023-05-11T09:20:33.512Z,48.26
2023-05-11T09:23:01.108Z,49.29
2023-05-11T09:25:30.842Z,50.21
2023-05-11T09:28:00.869Z,50.17
2023-05-11T09:37:58.534Z,46.12
2023-05-11T09:43:00.965Z,45.73
2023-05-11T09:45:36.329Z,45.84
2023-05-11T09:48:06.773Z,46.41
2023-05-11T09:50:34.577Z,46.53
2023-05-11T09:53:01.688Z,46.50
2023-05-11T09:55:28.914Z,46.47
2023-05-11T09:57:57.680Z,45.79
2023-05-11T10:00:24.976Z,45.94
2023-05-11T10:03:06.663Z,45.50
2023-05-11T10:05:34.866Z,44.03
2023-05-11T10:08:05.614Z,44.41
2023-05-11T10:10:32.816Z,46.26
2023-05-11T10:13:01.657Z,46.21
2023-05-11T10:15:32.222Z,45.08
2023-05-11T10:18:02.277Z,44.15
2023-05-11T10:20:29.734Z,42.49
2023-05-11T10:22:56.777Z,43.15
2023-05-11T10:25:26.009Z,43.39
2023-05-11T10:27:53.119Z,42.94
2023-05-11T10:30:20.417Z,43.13
2023-05-11T10:32:49.196Z,43.97
2023-05-11T10:35:16.939Z,43.51
2023-05-11T10:37:44.132Z,42.48
2023-05-11T10:40:11.530Z,41.23
2023-05-11T10:42:45.292Z,40.52
2023-05-11T10:45:41.138Z,40.57
2023-05-11T10:48:36.661Z,40.01
2023-05-11T10:51:19.018Z,40.25
2023-05-11T10:53:54.853Z,39.39
2023-05-11T10:56:56.045Z,39.76
2023-05-11T10:59:52.023Z,40.36
2023-05-11T11:02:19.799Z,40.67
2023-05-11T11:04:48.374Z,39.79
2023-05-11T11:07:21.108Z,38.97
2023-05-11T11:09:51.714Z,40.06
2023-05-11T11:12:19.606Z,40.04
2023-05-11T11:15:13.184Z,38.83
2023-05-11T11:17:40.575Z,39.31
2023-05-11T11:20:08.044Z,39.65
2023-05-11T11:22:35.047Z,40.52
2023-05-11T11:25:05.331Z,41.12
2023-05-11T11:27:42.478Z,40.92
2023-05-11T11:30:17.130Z,40.74
2023-05-11T11:32:48.517Z,40.05
2023-05-11T11:35:40.822Z,39.89
2023-05-11T11:38:09.048Z,40.49
2023-05-11T11:40:49.460Z,40.93
2023-05-11T11:43:19.374Z,40.40
2023-05-11T11:45:59.075Z,40.53
2023-05-11T11:48:30.466Z,39.91
2023-05-11T11:51:07.973Z,39.30
2023-05-11T11:53:40.441Z,39.96
2023-05-11T11:56:13.597Z,38.62
2023-05-11T11:58:40.650Z,38.55
2023-05-11T12:01:08.029Z,38.85
2023-05-11T12:03:36.149Z,38.70
2023-05-11T12:06:07.490Z,38.66
2023-05-11T12:08:36.075Z,37.12
2023-05-11T12:11:03.606Z,37.51
2023-05-11T12:13:31.505Z,38.02
2023-05-11T12:16:13.981Z,37.95
2023-05-11T12:18:41.590Z,37.92
2023-05-11T12:21:21.636Z,37.06
2023-05-11T12:23:52.764Z,36.23
2023-05-11T12:26:21.330Z,36.12
2023-05-11T12:28:51.962Z,35.45
2023-05-11T12:31:18.998Z,34.61
2023-05-11T12:33:51.435Z,33.67
2023-05-11T12:36:20.279Z,33.44
2023-05-11T12:38:49.283Z,32.22
2023-05-11T12:41:25.351Z,31.66
2023-05-11T12:43:53.880Z,31.92
2023-05-11T12:46:22.509Z,31.81
2023-05-11T12:48:50.046Z,30.69
2023-05-11T12:51:42.774Z,29.42
2023-05-11T12:54:11.214Z,28.18
2023-05-11T12:56:51.354Z,28.94
2023-05-11T12:59:31.139Z,28.27
2023-05-11T13:02:20.814Z,27.84
2023-05-11T13:04:48.040Z,27.94
2023-05-11T13:07:23.622Z,27.63
2023-05-11T13:09:57.984Z,26.89
2023-05-11T13:12:25.860Z,27.05
2023-05-11T13:15:07.683Z,27.37
2023-05-11T13:17:39.646Z,26.51
2023-05-11T13:20:29.061Z,26.56
2023-05-11T13:23:06.874Z,26.23
2023-05-11T13:25:35.270Z,26.65
2023-05-11T13:28:02.303Z,26.38
2023-05-11T13:30:29.513Z,25.87
2023-05-11T13:32:56.796Z,26.77
2023-05-11T13:35:23.732Z,27.26
2023-05-11T13:37:50.702Z,27.06
2023-05-11T13:40:17.741Z,26.28
2023-05-11T13:42:45.578Z,26.23
2023-05-11T13:45:12.690Z,26.42
2023-05-11T13:47:41.501Z,25.21
2023-05-11T13:50:09.813Z,24.25
2023-05-11T13:52:36.883Z,24.22
2023-05-11T13:55:04.393Z,25.00
2023-05-11T13:57:31.633Z,25.30
2023-05-11T13:59:58.584Z,25.16
2023-05-11T14:02:26.067Z,23.65
2023-05-11T14:04:53.330Z,23.78
2023-05-11T14:15:21.465Z,22.66
2023-05-11T14:17:49.394Z,22.39
2023-05-11T14:20:17.365Z,22.89
2023-05-11T14:22:44.783Z,22.66
2023-05-11T14:25:11.786Z,22.74
2023-05-11T14:27:38.918Z,22.34
2023-05-11T14:30:07.094Z,22.59
2023-05-11T14:32:34.998Z,22.63
2023-05-11T14:35:01.932Z,22.03
2023-05-11T14:37:29.209Z,21.75
2023-05-11T14:39:56.209Z,21.47
2023-05-11T14:42:23.425Z,21.33
2023-05-11T14:44:50.479Z,20.26
2023-05-11T14:47:17.401Z,20.35
2023-05-11T14:49:44.611Z,19.94
2023-05-11T14:52:11.867Z,20.27
2023-05-11T14:54:38.784Z,21.05
2023-05-11T14:57:06.020Z,22.24
2023-05-11T14:59:32.896Z,22.89
2023-05-11T15:02:00.062Z,23.72
2023-05-11T15:04:27.099Z,24.11
2023-05-11T15:06:54.469Z,23.68
2023-05-11T15:09:21.591Z,23.52
2023-05-11T15:11:48.650Z,23.60
2023-05-11T15:14:16.300Z,23.48
2023-05-11T15:16:43.265Z,24.10
2023-05-11T15:19:12.074Z,24.16
2023-05-11T15:21:39.202Z,24.56
2023-05-11T15:24:07.513Z,24.33
2023-05-11T15:26:36.721Z,24.70
2023-05-11T15:29:03.770Z,25.20
2023-05-11T15:31:30.715Z,25.70
2023-05-11T15:33:59.826Z,26.32
2023-05-11T15:36:29.982Z,27.15
2023-05-11T15:38:57.009Z,27.67
2023-05-11T15:41:25.854Z,28.30
2023-05-11T15:43:54.493Z,29.20
2023-05-11T15:46:22.023Z,30.34
2023-05-11T15:48:49.134Z,30.77
2023-05-11T15:51:16.758Z,30.58
2023-05-11T15:53:43.901Z,30.40
2023-05-11T15:56:13.447Z,30.51
2023-05-11T15:58:42.660Z,29.30
2023-05-11T16:01:10.430Z,29.32
2023-05-11T16:03:37.731Z,31.86
2023-05-11T16:06:06.090Z,34.31
2023-05-11T16:08:33.951Z,36.09
2023-05-11T16:11:00.954Z,37.47
2023-05-11T16:13:27.870Z,37.56
2023-05-11T16:15:54.782Z,37.53
2023-05-11T16:18:21.920Z,38.73
2023-05-11T16:20:48.900Z,39.47
2023-05-11T16:23:15.873Z,40.52
2023-05-11T16:25:42.969Z,41.36
2023-05-11T16:28:10.125Z,41.79
2023-05-11T16:30:37.162Z,42.27
2023-05-11T16:33:04.147Z,42.17
2023-05-11T16:35:33.524Z,41.78
2023-05-11T16:38:00.695Z,41.68
2023-05-11T16:40:27.713Z,41.82
2023-05-11T16:42:54.862Z,42.50
2023-05-11T16:45:22.364Z,43.36
2023-05-11T16:47:49.614Z,44.55
2023-05-11T16:50:17.591Z,45.94
2023-05-11T16:52:45.441Z,47.33
2023-05-11T16:55:12.738Z,48.55
2023-05-11T16:57:40.033Z,49.81
2023-05-11T17:00:08.452Z,51.03
2023-05-11T17:02:36.415Z,52.33
2023-05-11T17:05:05.005Z,53.22
2023-05-11T17:07:32.327Z,54.38
2023-05-11T17:10:00.690Z,55.38
2023-05-11T17:12:28.486Z,56.18
2023-05-11T17:14:56.986Z,56.61
2023-05-11T17:17:24.216Z,57.57
2023-05-11T17:19:51.415Z,58.16
2023-05-11T17:22:19.634Z,58.80
2023-05-11T17:24:48.178Z,59.35
2023-05-11T17:27:15.977Z,60.10
2023-05-11T17:29:43.828Z,60.82
2023-05-11T17:32:10.940Z,61.35
2023-05-11T17:34:38.064Z,61.86
2023-05-11T17:37:05.267Z,61.81
2023-05-11T17:39:33.624Z,61.85
2023-05-11T17:42:01.651Z,62.02
2023-05-11T17:44:30.312Z,61.72
2023-05-11T17:46:57.682Z,61.73
2023-05-11T17:49:24.898Z,62.09
2023-05-11T17:51:52.013Z,61.78
2023-05-11T17:54:20.149Z,61.51
2023-05-11T17:56:47.167Z,61.26
2023-05-11T17:59:14.913Z,60.95
2023-05-11T18:01:42.860Z,61.13
2023-05-11T18:04:10.083Z,61.33
2023-05-11T18:06:37.077Z,61.64
2023-05-11T18:09:08.219Z,61.95
2023-05-11T18:11:35.544Z,62.25
2023-05-11T18:14:03.281Z,62.45
2023-05-11T18:16:30.883Z,62.33
2023-05-11T18:19:00.290Z,62.31
2023-05-11T18:21:28.457Z,62.41
2023-05-11T18:23:56.118Z,62.35
2023-05-11T18:26:25.472Z,61.99
2023-05-11T18:28:54.531Z,62.10
2023-05-11T18:31:21.885Z,61.87
2023-05-11T18:33:49.658Z,61.78
2023-05-11T18:36:16.975Z,61.67
2023-05-11T18:38:44.060Z,61.64
2023-05-11T18:41:11.444Z,61.67
2023-05-11T18:43:38.652Z,61.80
2023-05-11T18:46:08.241Z,61.95
2023-05-11T18:48:36.951Z,62.17
2023-05-11T18:51:04.720Z,62.25
2023-05-11T18:53:35.924Z,62.45
2023-05-11T18:56:04.936Z,62.70
2023-05-11T18:58:32.282Z,62.91
2023-05-11T19:00:59.249Z,62.87
2023-05-11T19:03:26.324Z,62.68
2023-05-11T19:05:54.801Z,62.49
2023-05-11T19:08:23.719Z,62.21
2023-05-11T19:10:53.978Z,61.91
2023-05-11T19:13:21.685Z,61.85
2023-05-11T19:15:49.481Z,61.71
2023-05-11T19:18:17.276Z,60.99
2023-05-11T19:20:44.382Z,60.79
2023-05-11T19:23:11.590Z,60.64
2023-05-11T19:25:38.666Z,60.38
2023-05-11T19:28:06.842Z,60.29
2023-05-11T19:30:36.040Z,60.79
2023-05-11T19:33:03.394Z,61.81
2023-05-11T19:35:33.058Z,62.29
2023-05-11T19:38:01.257Z,62.49
2023-05-11T19:43:02.024Z,62.87
2023-05-11T19:45:32.754Z,63.04
2023-05-11T19:48:00.265Z,63.20
2023-05-11T19:50:29.304Z,63.57
2023-05-11T19:52:56.980Z,63.84
2023-05-11T19:55:23.936Z,64.20
2023-05-11T19:57:52.253Z,64.59
2023-05-11T20:00:24.442Z,64.96
2023-05-11T20:02:52.219Z,65.42
2023-05-11T20:05:19.254Z,65.49
2023-05-11T20:07:46.241Z,65.11
2023-05-11T20:10:13.437Z,65.65
2023-05-11T20:12:40.408Z,65.74
2023-05-11T20:15:07.989Z,65.85
2023-05-11T20:17:35.563Z,66.20
2023-05-11T20:20:02.884Z,66.19
2023-05-11T20:22:30.801Z,66.31
2023-05-11T20:24:57.671Z,66.83
2023-05-11T20:27:24.733Z,67.43
2023-05-11T20:29:52.948Z,68.14
2023-05-11T20:32:20.226Z,68.84
2023-05-11T20:34:48.351Z,69.38
2023-05-11T20:37:16.690Z,70.10
2023-05-11T20:39:46.224Z,70.52
2023-05-11T20:42:13.571Z,70.69
2023-05-11T20:44:40.567Z,70.83
2023-05-11T20:47:08.560Z,71.05
2023-05-11T20:49:39.402Z,71.59
2023-05-11T20:52:07.435Z,71.78
2023-05-11T20:54:35.172Z,72.13
2023-05-11T20:57:02.626Z,72.49
2023-05-11T21:02:02.328Z,73.06
2023-05-11T21:04:31.776Z,73.31
2023-05-11T21:06:58.755Z,73.77
2023-05-11T21:09:25.805Z,74.30
2023-05-11T21:11:52.854Z,75.17
2023-05-11T21:14:19.835Z,76.13
2023-05-11T21:16:47.361Z,76.85
2023-05-11T21:19:15.909Z,77.32
2023-05-11T21:21:42.820Z,77.51
2023-05-11T21:24:09.937Z,77.40
2023-05-11T21:26:37.515Z,77.25
2023-05-11T21:29:04.747Z,77.44
2023-05-11T21:31:32.250Z,77.68
2023-05-11T21:33:59.512Z,78.22
2023-05-11T21:36:26.566Z,78.77
2023-05-11T21:38:53.555Z,79.19
2023-05-11T21:41:20.870Z,79.91
2023-05-11T21:43:47.914Z,80.37
2023-05-11T21:46:14.974Z,80.54
2023-05-11T21:48:42.506Z,80.80
2023-05-11T21:51:09.440Z,80.86
2023-05-11T21:53:36.743Z,81.18
2023-05-11T21:56:03.921Z,80.84
2023-05-11T21:58:31.331Z,80.94
2023-05-11T22:00:58.494Z,80.92
2023-05-11T22:03:28.168Z,80.92
2023-05-11T22:05:55.346Z,81.13
2023-05-11T22:08:22.427Z,81.24
2023-05-11T22:10:49.327Z,81.43
2023-05-11T22:13:16.607Z,81.60
2023-05-11T22:15:43.641Z,81.79
2023-05-11T22:18:11.111Z,81.86
2023-05-11T22:20:40.075Z,82.07
2023-05-11T22:23:07.562Z,82.01
2023-05-11T22:25:34.529Z,81.93
2023-05-11T22:28:01.700Z,81.15
2023-05-11T22:30:28.966Z,80.54
2023-05-11T22:32:56.042Z,80.20
2023-05-11T22:35:23.613Z,79.80
2023-05-11T22:37:50.947Z,79.64
2023-05-11T22:40:19.257Z,79.77
2023-05-11T22:42:46.557Z,80.36
2023-05-11T22:45:14.885Z,80.65
2023-05-11T22:47:42.406Z,80.87
2023-05-11T22:50:11.609Z,81.18
2023-05-11T22:52:38.956Z,81.45
2023-05-11T22:55:06.726Z,81.63
2023-05-11T22:57:34.805Z,81.55
2023-05-11T23:00:03.244Z,81.86
2023-05-11T23:02:33.002Z,82.07
2023-05-11T23:05:00.334Z,82.40
2023-05-11T23:07:30.213Z,82.95
2023-05-11T23:09:59.012Z,83.44
2023-05-11T23:12:26.185Z,83.59
2023-05-11T23:14:53.365Z,83.84
2023-05-11T23:17:20.488Z,84.08
2023-05-11T23:19:47.693Z,84.08
2023-05-11T23:22:14.757Z,83.76
